createdAt,value
2018-08-02T00:02:43.210Z,91.60
2018-08-02T00:10:42.182Z,91.90
2018-08-02T00:13:11.378Z,91.80
2018-08-02T00:15:40.532Z,92.00
2018-08-02T00:18:09.725Z,92.20
2018-08-02T00:20:38.872Z,92.40
2018-08-02T00:23:26.513Z,92.80
2018-08-02T00:25:55.644Z,92.50
2018-08-02T00:28:26.737Z,92.50
2018-08-02T00:30:55.934Z,92.20
2018-08-02T00:33:25.088Z,92.50
2018-08-02T00:38:54.449Z,92.60
2018-08-02T00:41:23.647Z,92.80
2018-08-02T00:43:52.862Z,93.00
2018-08-02T00:46:22.061Z,93.10
2018-08-02T00:48:51.341Z,93.00
2018-08-02T00:51:20.498Z,93.00
2018-08-02T00:53:49.708Z,92.90
2018-08-02T00:56:25.768Z,93.20
2018-08-02T01:01:24.111Z,93.60
2018-08-02T01:03:53.520Z,93.80
2018-08-02T01:06:22.738Z,93.90
2018-08-02T01:08:51.878Z,93.80
2018-08-02T01:11:21.098Z,93.90
2018-08-02T01:13:50.278Z,93.90
2018-08-02T01:16:19.498Z,93.90
2018-08-02T01:18:48.644Z,93.70
2018-08-02T01:21:17.846Z,94.10
2018-08-02T01:26:47.313Z,94.30
2018-08-02T01:29:16.453Z,94.30
2018-08-02T01:31:45.589Z,94.40
2018-08-02T01:34:14.761Z,94.50
2018-08-02T01:36:43.997Z,94.60
2018-08-02T01:39:13.460Z,94.70
2018-08-02T01:41:42.637Z,94.80
2018-08-02T01:44:32.000Z,94.90
2018-08-02T01:47:01.217Z,94.70
2018-08-02T01:49:30.389Z,95.30
2018-08-02T01:54:59.698Z,95.00
2018-08-02T01:57:28.842Z,95.20
2018-08-02T02:00:23.950Z,95.20
2018-08-02T02:02:53.127Z,95.00
2018-08-02T02:08:24.023Z,95.00
2018-08-02T02:10:53.218Z,95.00
2018-08-02T02:13:22.374Z,95.50
2018-08-02T02:18:20.568Z,95.80
2018-08-02T02:20:49.733Z,95.80
2018-08-02T02:23:26.255Z,95.60
2018-08-02T02:25:55.449Z,95.90
2018-08-02T02:28:24.715Z,96.00
2018-08-02T02:30:53.993Z,96.50
2018-08-02T02:33:23.143Z,96.60
2018-08-02T02:38:52.945Z,96.20
2018-08-02T02:41:22.114Z,96.30
2018-08-02T02:43:51.373Z,96.80
2018-08-02T02:46:20.568Z,96.40
2018-08-02T02:51:50.021Z,96.50
2018-08-02T02:54:19.189Z,96.10
2018-08-02T02:56:48.442Z,96.80
2018-08-02T02:59:17.628Z,96.60
2018-08-02T03:04:47.569Z,96.90
2018-08-02T03:07:16.737Z,96.70
2018-08-02T03:09:45.908Z,96.60
2018-08-02T03:12:15.177Z,96.70
2018-08-02T03:14:44.349Z,96.50
2018-08-02T03:17:13.667Z,96.90
2018-08-02T03:19:42.850Z,97.00
2018-08-02T03:22:12.075Z,97.20
2018-08-02T03:24:41.265Z,97.20
2018-08-02T03:27:10.469Z,97.20
2018-08-02T03:29:39.613Z,97.30
2018-08-02T03:32:25.115Z,97.40
2018-08-02T03:34:54.367Z,97.40
2018-08-02T03:37:23.974Z,97.50
2018-08-02T03:39:53.158Z,97.40
2018-08-02T03:42:22.453Z,97.40
2018-08-02T03:44:51.598Z,97.60
2018-08-02T03:47:21.061Z,97.50
2018-08-02T03:52:19.576Z,97.70
2018-08-02T03:54:48.761Z,97.70
2018-08-02T03:57:17.921Z,97.60
2018-08-02T03:59:47.068Z,97.70
2018-08-02T04:02:26.457Z,97.50
2018-08-02T04:04:55.615Z,97.70
2018-08-02T04:07:24.814Z,97.80
2018-08-02T04:09:54.117Z,97.90
2018-08-02T04:12:23.321Z,97.80
2018-08-02T04:14:52.448Z,97.90
2018-08-02T04:17:21.613Z,97.90
2018-08-02T04:19:50.822Z,98.10
2018-08-02T04:22:19.981Z,98.10
2018-08-02T04:24:49.402Z,98.30
2018-08-02T04:29:52.373Z,98.20
2018-08-02T04:32:27.889Z,98.30
2018-08-02T04:34:57.342Z,98.30
2018-08-02T04:37:27.337Z,98.40
2018-08-02T04:39:56.487Z,98.30
2018-08-02T04:42:25.669Z,98.40
2018-08-02T04:44:54.812Z,98.50
2018-08-02T04:47:23.956Z,98.60
2018-08-02T04:49:53.131Z,98.90
2018-08-02T04:52:22.305Z,98.50
2018-08-02T04:54:51.469Z,98.40
2018-08-02T04:57:20.634Z,98.40
2018-08-02T04:59:49.808Z,98.50
2018-08-02T05:02:25.986Z,98.50
2018-08-02T05:04:55.130Z,98.60
2018-08-02T05:07:24.332Z,98.70
2018-08-02T05:09:53.564Z,98.60
2018-08-02T05:12:22.730Z,98.60
2018-08-02T05:14:51.885Z,98.50
2018-08-02T05:17:21.049Z,98.50
2018-08-02T05:19:50.184Z,98.50
2018-08-02T05:22:19.395Z,98.40
2018-08-02T05:24:48.544Z,98.40
2018-08-02T05:27:17.742Z,98.40
2018-08-02T05:29:46.886Z,98.50
2018-08-02T05:32:25.838Z,98.60
2018-08-02T05:37:26.989Z,98.90
2018-08-02T05:39:56.243Z,98.40
2018-08-02T05:42:25.376Z,98.40
2018-08-02T05:44:54.563Z,98.40
2018-08-02T05:47:23.704Z,98.70
2018-08-02T05:49:52.864Z,98.70
2018-08-02T05:52:22.371Z,98.60
2018-08-02T05:54:52.223Z,98.90
2018-08-02T05:57:21.374Z,98.70
2018-08-02T05:59:50.558Z,98.50
2018-08-02T06:02:25.899Z,99.30
2018-08-02T06:04:55.100Z,98.80
2018-08-02T06:07:24.247Z,99.90
2018-08-02T06:12:22.909Z,98.90
2018-08-02T06:14:52.085Z,99.70
2018-08-02T06:17:21.212Z,98.50
2018-08-02T06:19:50.388Z,98.20
2018-08-02T06:22:19.532Z,98.80
2018-08-02T06:24:48.767Z,99.40
2018-08-02T06:27:17.947Z,98.20
2018-08-02T06:29:47.114Z,99.90
2018-08-02T06:32:26.145Z,98.30
2018-08-02T06:34:55.285Z,99.50
2018-08-02T06:37:24.518Z,99.80
2018-08-02T06:39:53.790Z,99.30
2018-08-02T06:42:22.985Z,99.30
2018-08-02T06:44:52.169Z,98.20
2018-08-02T06:47:31.921Z,98.90
2018-08-02T06:50:05.018Z,99.40
2018-08-02T06:52:34.269Z,99.50
2018-08-02T06:55:11.562Z,99.00
2018-08-02T06:57:41.373Z,99.60
2018-08-02T07:00:13.362Z,99.70
2018-08-02T07:02:42.740Z,99.80
2018-08-02T07:05:11.893Z,98.30
2018-08-02T07:07:41.065Z,97.40
2018-08-02T07:10:10.441Z,99.30
2018-08-02T07:12:39.941Z,98.30
2018-08-02T07:15:25.895Z,99.30
2018-08-02T07:17:55.075Z,99.40
2018-08-02T07:20:24.222Z,98.80
2018-08-02T07:22:53.395Z,98.60
2018-08-02T07:25:22.548Z,96.50
2018-08-02T07:27:51.726Z,98.40
2018-08-02T07:30:44.875Z,98.70
2018-08-02T07:33:14.102Z,98.70
2018-08-02T07:35:43.286Z,97.80
2018-08-02T07:38:12.452Z,97.40
2018-08-02T07:40:41.613Z,98.00
2018-08-02T07:43:25.609Z,98.00
2018-08-02T07:45:54.754Z,97.70
2018-08-02T07:48:23.897Z,98.50
2018-08-02T07:50:53.141Z,98.20
2018-08-02T07:53:22.336Z,97.60
2018-08-02T07:55:51.533Z,96.90
2018-08-02T07:58:20.733Z,96.40
2018-08-02T08:00:49.884Z,96.90
2018-08-02T08:03:19.048Z,96.30
2018-08-02T08:05:48.213Z,96.70
2018-08-02T08:08:17.364Z,96.00
2018-08-02T08:10:46.568Z,95.80
2018-08-02T08:13:15.845Z,95.80
2018-08-02T08:15:44.990Z,95.20
2018-08-02T08:18:14.131Z,95.00
2018-08-02T08:20:43.338Z,94.50
2018-08-02T08:23:12.594Z,94.50
2018-08-02T08:25:41.786Z,94.40
2018-08-02T08:28:10.989Z,93.50
2018-08-02T08:30:40.208Z,94.30
2018-08-02T08:33:09.355Z,93.80
2018-08-02T08:35:38.601Z,93.50
2018-08-02T08:38:07.417Z,93.30
2018-08-02T08:40:36.577Z,93.70
2018-08-02T08:43:05.832Z,93.20
2018-08-02T08:45:35.000Z,92.70
2018-08-02T08:48:04.260Z,92.50
2018-08-02T08:50:33.500Z,92.60
2018-08-02T08:53:02.675Z,92.60
2018-08-02T08:55:32.197Z,91.60
2018-08-02T08:58:01.380Z,91.70
2018-08-02T09:00:30.557Z,91.70
2018-08-02T09:02:59.869Z,91.90
2018-08-02T09:05:29.078Z,92.20
2018-08-02T09:07:58.270Z,91.30
2018-08-02T09:10:27.466Z,91.90
2018-08-02T09:12:56.643Z,91.70
2018-08-02T09:15:25.868Z,91.00
2018-08-02T09:17:55.030Z,91.30
2018-08-02T09:20:27.878Z,91.10
2018-08-02T09:22:57.057Z,91.40
2018-08-02T09:25:26.246Z,90.80
2018-08-02T09:27:55.448Z,91.20
2018-08-02T09:30:24.613Z,90.60
2018-08-02T09:32:53.903Z,90.40
2018-08-02T09:35:28.815Z,90.10
2018-08-02T09:37:58.041Z,89.60
2018-08-02T09:40:27.257Z,89.00
2018-08-02T09:42:56.426Z,88.70
2018-08-02T09:45:25.653Z,87.70
2018-08-02T09:47:54.797Z,86.90
2018-08-02T09:50:23.985Z,86.30
2018-08-02T09:52:53.141Z,85.20
2018-08-02T09:55:22.290Z,85.90
2018-08-02T09:57:51.746Z,84.60
2018-08-02T10:00:26.087Z,85.00
2018-08-02T10:02:55.251Z,85.40
2018-08-02T10:05:24.405Z,84.70
2018-08-02T10:07:53.549Z,84.10
2018-08-02T10:10:22.727Z,83.70
2018-08-02T10:12:51.940Z,83.80
2018-08-02T10:15:26.782Z,82.70
2018-08-02T10:17:55.953Z,81.20
2018-08-02T10:20:25.529Z,81.80
2018-08-02T10:22:54.696Z,82.20
2018-08-02T10:25:23.955Z,82.80
2018-08-02T10:27:53.181Z,83.90
2018-08-02T10:30:28.453Z,82.30
2018-08-02T10:32:57.610Z,80.70
2018-08-02T10:35:26.790Z,79.50
2018-08-02T10:37:56.008Z,80.00
2018-08-02T10:40:25.357Z,78.90
2018-08-02T10:42:54.534Z,78.80
2018-08-02T10:45:23.721Z,79.00
2018-08-02T10:47:53.005Z,78.30
2018-08-02T10:50:22.171Z,79.60
2018-08-02T10:52:51.584Z,79.10
2018-08-02T10:55:20.778Z,78.60
2018-08-02T10:57:50.206Z,78.80
2018-08-02T11:00:19.480Z,78.00
2018-08-02T11:02:48.686Z,76.20
2018-08-02T11:05:17.850Z,76.20
2018-08-02T11:10:47.101Z,77.20
2018-08-02T11:13:16.394Z,76.90
2018-08-02T11:15:45.552Z,76.00
2018-08-02T11:18:14.787Z,76.80
2018-08-02T11:20:43.972Z,74.00
2018-08-02T11:23:13.381Z,74.70
2018-08-02T11:25:42.553Z,74.40
2018-08-02T11:28:11.719Z,74.40
2018-08-02T11:30:41.184Z,74.10
2018-08-02T11:33:10.378Z,72.80
2018-08-02T11:35:39.531Z,73.20
2018-08-02T11:38:08.714Z,72.90
2018-08-02T11:40:37.920Z,73.70
2018-08-02T11:48:25.315Z,69.70
2018-08-02T11:50:54.556Z,72.50
2018-08-02T11:53:27.233Z,71.50
2018-08-02T11:55:56.371Z,73.00
2018-08-02T11:58:25.706Z,71.90
2018-08-02T12:00:54.886Z,72.50
2018-08-02T12:03:24.023Z,72.50
2018-08-02T12:05:53.165Z,72.30
2018-08-02T12:08:22.412Z,71.20
2018-08-02T12:10:51.608Z,72.80
2018-08-02T12:13:20.752Z,71.40
2018-08-02T12:15:49.946Z,70.50
2018-08-02T12:18:19.126Z,68.10
2018-08-02T12:20:48.313Z,71.70
2018-08-02T12:23:17.502Z,71.20
2018-08-02T12:25:46.648Z,71.80
2018-08-02T12:28:15.798Z,68.80
2018-08-02T12:30:44.982Z,69.30
2018-08-02T12:33:14.163Z,68.70
2018-08-02T12:35:43.365Z,67.80
2018-08-02T12:38:12.545Z,69.50
2018-08-02T12:40:41.755Z,67.30
2018-08-02T12:43:10.961Z,67.00
2018-08-02T12:45:40.129Z,67.80
2018-08-02T12:48:09.370Z,67.50
2018-08-02T12:50:38.566Z,67.00
2018-08-02T12:53:07.836Z,66.70
2018-08-02T12:55:37.013Z,65.00
2018-08-02T12:58:06.395Z,67.20
2018-08-02T13:00:35.765Z,66.10
2018-08-02T13:03:25.326Z,65.90
2018-08-02T13:05:54.514Z,66.30
2018-08-02T13:08:23.670Z,66.10
2018-08-02T13:10:53.567Z,66.40
2018-08-02T13:13:22.693Z,65.50
2018-08-02T13:15:51.933Z,66.90
2018-08-02T13:18:21.138Z,67.20
2018-08-02T13:20:50.349Z,68.90
2018-08-02T13:23:19.489Z,68.90
2018-08-02T13:25:48.711Z,69.50
2018-08-02T13:28:17.898Z,68.60
2018-08-02T13:30:47.056Z,68.30
2018-08-02T13:33:16.199Z,65.90
2018-08-02T13:35:45.415Z,66.80
2018-08-02T13:38:14.574Z,66.00
2018-08-02T13:40:43.788Z,66.10
2018-08-02T13:43:13.030Z,66.00
2018-08-02T13:45:42.187Z,64.40
2018-08-02T13:48:11.342Z,63.50
2018-08-02T13:50:40.510Z,63.70
2018-08-02T13:53:09.676Z,64.00
2018-08-02T13:55:38.853Z,64.50
2018-08-02T13:58:27.038Z,64.70
2018-08-02T14:00:56.296Z,63.00
2018-08-02T14:03:25.441Z,64.20
2018-08-02T14:05:54.985Z,62.60
2018-08-02T14:08:24.133Z,63.70
2018-08-02T14:10:53.901Z,63.20
2018-08-02T14:13:23.106Z,60.50
2018-08-02T14:18:52.771Z,59.10
2018-08-02T14:21:21.926Z,59.50
2018-08-02T14:23:51.126Z,62.00
2018-08-02T14:26:26.250Z,59.60
2018-08-02T14:28:55.458Z,62.00
2018-08-02T14:31:24.754Z,63.40
2018-08-02T14:33:54.150Z,60.90
2018-08-02T14:38:52.309Z,60.40
2018-08-02T14:41:21.458Z,60.30
2018-08-02T14:43:51.055Z,62.20
2018-08-02T14:46:20.219Z,59.90
2018-08-02T14:53:47.409Z,60.60
2018-08-02T14:56:16.569Z,58.80
2018-08-02T14:58:45.857Z,61.60
2018-08-02T15:01:15.066Z,62.00
2018-08-02T15:03:44.217Z,58.80
2018-08-02T15:06:13.482Z,59.90
2018-08-02T15:08:42.638Z,60.90
2018-08-02T15:11:11.927Z,60.90
2018-08-02T15:13:41.165Z,61.70
2018-08-02T15:16:10.316Z,63.70
2018-08-02T15:21:39.850Z,63.10
2018-08-02T15:24:09.010Z,63.70
2018-08-02T15:26:38.178Z,64.00
2018-08-02T15:29:07.373Z,64.70
2018-08-02T15:31:36.545Z,64.90
2018-08-02T15:34:05.697Z,64.10
2018-08-02T15:36:34.893Z,65.50
2018-08-02T15:39:06.229Z,65.60
2018-08-02T15:41:35.535Z,65.10
2018-08-02T15:46:33.624Z,66.10
2018-08-02T15:51:31.757Z,66.20
2018-08-02T15:54:00.918Z,65.40
2018-08-02T15:56:30.732Z,65.50
2018-08-02T15:58:59.922Z,65.30
2018-08-02T16:01:29.257Z,67.20
2018-08-02T16:04:23.938Z,66.90
2018-08-02T16:06:53.085Z,65.60
2018-08-02T16:09:22.278Z,64.30
2018-08-02T16:11:51.481Z,64.30
2018-08-02T16:14:20.633Z,64.50
2018-08-02T16:16:49.781Z,64.80
2018-08-02T16:19:19.010Z,63.90
2018-08-02T16:21:48.883Z,64.10
2018-08-02T16:24:18.025Z,63.90
2018-08-02T16:26:47.299Z,63.50
2018-08-02T16:29:16.471Z,63.30
2018-08-02T16:31:45.646Z,63.60
2018-08-02T16:34:14.812Z,62.60
2018-08-02T16:36:44.089Z,61.40
2018-08-02T16:39:13.213Z,63.00
2018-08-02T16:41:42.490Z,63.10
2018-08-02T16:46:40.989Z,63.40
2018-08-02T16:51:39.349Z,64.10
2018-08-02T16:54:08.536Z,64.30
2018-08-02T16:56:37.876Z,63.90
2018-08-02T16:59:25.950Z,64.60
2018-08-02T17:02:24.496Z,65.40
2018-08-02T17:04:53.728Z,64.20
2018-08-02T17:07:22.955Z,64.50
2018-08-02T17:09:52.254Z,64.10
2018-08-02T17:12:21.446Z,63.10
2018-08-02T17:14:50.595Z,63.20
2018-08-02T17:19:48.837Z,63.70
2018-08-02T17:22:17.997Z,63.10
2018-08-02T17:24:47.165Z,63.50
2018-08-02T17:27:26.490Z,62.40
2018-08-02T17:29:55.675Z,63.60
2018-08-02T17:32:27.972Z,65.00
2018-08-02T17:34:57.175Z,63.90
2018-08-02T17:37:26.396Z,64.90
2018-08-02T17:39:55.819Z,65.30
2018-08-02T17:42:25.029Z,65.80
2018-08-02T17:44:54.208Z,66.00
2018-08-02T17:47:23.507Z,66.60
2018-08-02T17:49:52.769Z,66.90
2018-08-02T17:52:21.925Z,67.30
2018-08-02T17:54:51.222Z,67.70
2018-08-02T17:57:20.446Z,68.00
2018-08-02T17:59:49.657Z,68.50
2018-08-02T18:02:27.059Z,68.70
2018-08-02T18:04:57.130Z,68.40
2018-08-02T18:07:27.496Z,69.00
2018-08-02T18:10:25.406Z,68.20
2018-08-02T18:12:54.805Z,68.20
2018-08-02T18:15:23.956Z,68.50
2018-08-02T18:20:53.917Z,68.40
2018-08-02T18:23:28.930Z,68.20
2018-08-02T18:25:58.258Z,68.30
2018-08-02T18:28:27.474Z,68.40
2018-08-02T18:30:56.719Z,68.30
2018-08-02T18:33:25.985Z,68.50
2018-08-02T18:35:55.173Z,68.50
2018-08-02T18:38:27.861Z,68.70
2018-08-02T18:40:57.032Z,68.80
2018-08-02T18:43:26.191Z,68.70
2018-08-02T18:45:55.393Z,68.90
2018-08-02T18:48:24.573Z,69.10
2018-08-02T18:50:53.746Z,69.60
2018-08-02T18:53:22.942Z,70.90
2018-08-02T18:55:52.169Z,73.10
2018-08-02T18:58:21.309Z,71.50
2018-08-02T19:00:50.518Z,70.50
2018-08-02T19:03:19.756Z,70.30
2018-08-02T19:05:49.578Z,70.40
2018-08-02T19:08:18.949Z,70.70
2018-08-02T19:10:48.150Z,71.00
2018-08-02T19:13:17.290Z,71.00
2018-08-02T19:18:15.841Z,71.60
2018-08-02T19:20:44.990Z,71.60
2018-08-02T19:23:14.203Z,72.00
2018-08-02T19:25:43.366Z,72.30
2018-08-02T19:28:12.533Z,72.30
2018-08-02T19:30:41.745Z,74.50
2018-08-02T19:33:34.322Z,75.10
2018-08-02T19:38:32.520Z,73.30
2018-08-02T19:41:26.439Z,73.30
2018-08-02T19:43:55.673Z,73.70
2018-08-02T19:46:24.809Z,76.00
2018-08-02T19:48:54.020Z,75.60
2018-08-02T19:51:23.206Z,75.50
2018-08-02T19:53:52.427Z,76.00
2018-08-02T19:56:21.685Z,78.30
2018-08-02T19:58:50.926Z,78.70
2018-08-02T20:01:26.755Z,78.20
2018-08-02T20:03:55.999Z,78.30
2018-08-02T20:06:25.482Z,79.10
2018-08-02T20:08:54.691Z,78.70
2018-08-02T20:11:23.978Z,78.30
2018-08-02T20:13:53.507Z,77.70
2018-08-02T20:16:22.693Z,77.50
2018-08-02T20:18:51.860Z,78.60
2018-08-02T20:21:21.129Z,79.60
2018-08-02T20:23:50.355Z,79.90
2018-08-02T20:26:19.610Z,79.70
2018-08-02T20:32:28.735Z,79.10
2018-08-02T20:34:57.904Z,79.30
2018-08-02T20:37:27.388Z,80.80
2018-08-02T20:39:56.627Z,82.80
2018-08-02T20:42:27.815Z,80.40
2018-08-02T20:44:57.017Z,80.50
2018-08-02T20:47:27.189Z,80.50
2018-08-02T20:49:56.739Z,80.50
2018-08-02T20:52:25.902Z,80.90
2018-08-02T20:54:56.101Z,82.90
2018-08-02T20:57:28.690Z,85.70
2018-08-02T20:59:57.847Z,86.90
2018-08-02T21:02:27.087Z,87.50
2018-08-02T21:04:56.307Z,85.30
2018-08-02T21:07:25.785Z,83.80
2018-08-02T21:12:03.670Z,83.60
2018-08-02T21:14:32.821Z,83.50
2018-08-02T21:17:02.038Z,83.50
2018-08-02T21:19:31.246Z,83.90
2018-08-02T21:22:00.403Z,83.80
2018-08-02T21:24:29.562Z,84.00
2018-08-02T21:26:59.037Z,84.40
2018-08-02T21:29:28.207Z,84.50
2018-08-02T21:32:26.144Z,84.60
2018-08-02T21:34:55.313Z,85.30
2018-08-02T21:37:24.455Z,85.00
2018-08-02T21:42:54.047Z,85.60
2018-08-02T21:45:23.277Z,86.60
2018-08-02T21:47:52.491Z,87.20
2018-08-02T21:50:21.659Z,86.80
2018-08-02T21:52:50.822Z,87.40
2018-08-02T21:57:49.071Z,87.20
2018-08-02T22:00:27.738Z,87.30
2018-08-02T22:02:57.253Z,87.10
2018-08-02T22:08:24.708Z,88.10
2018-08-02T22:10:54.296Z,88.10
2018-08-02T22:13:28.788Z,88.40
2018-08-02T22:15:58.167Z,88.90
2018-08-02T22:18:27.320Z,89.10
2018-08-02T22:20:56.491Z,89.00
2018-08-02T22:23:25.693Z,91.00
2018-08-02T22:25:54.890Z,91.90
2018-08-02T22:28:24.177Z,90.60
2018-08-02T22:30:53.385Z,90.30
2018-08-02T22:33:28.677Z,90.10
2018-08-02T22:36:24.286Z,90.30
2018-08-02T22:38:53.466Z,90.30
2018-08-02T22:41:22.730Z,91.90
2018-08-02T22:43:51.997Z,92.70
2018-08-02T22:46:27.033Z,94.30
2018-08-02T22:48:56.260Z,94.70
2018-08-02T22:51:25.486Z,93.20
2018-08-02T22:53:54.666Z,93.30
2018-08-02T22:56:23.890Z,92.30
2018-08-02T22:58:53.029Z,92.10
2018-08-02T23:01:22.215Z,91.90
2018-08-02T23:06:51.588Z,92.00
2018-08-02T23:09:20.737Z,92.00
2018-08-02T23:11:50.284Z,92.10
2018-08-02T23:14:19.507Z,92.20
2018-08-02T23:16:48.765Z,92.30
2018-08-02T23:19:17.921Z,92.50
2018-08-02T23:24:47.436Z,92.40
2018-08-02T23:27:16.578Z,92.50
2018-08-02T23:29:45.712Z,92.60
2018-08-02T23:32:26.841Z,92.60
2018-08-02T23:34:55.977Z,92.70
2018-08-02T23:37:25.121Z,92.80
2018-08-02T23:39:54.297Z,92.90
2018-08-02T23:42:23.440Z,92.60
2018-08-02T23:44:52.648Z,93.30
2018-08-02T23:47:21.831Z,93.30
2018-08-02T23:49:51.037Z,93.30
2018-08-02T23:52:20.181Z,93.20
2018-08-02T23:54:49.373Z,93.30
2018-08-02T23:57:18.509Z,93.60
